Time;durP1;ratioP1;P1;durP2;ratioP2;P2;SDS_P1;SDS_P2;PMS_P1;PMS_P2;Temp;Humidity;BMP_temperature;BMP_pressure;BME280_temperature;BME280_humidity;BME280_pressure;Samples;Min_cycle;Max_cycle;Signal;HPM_P1;HPM_P2
2023/06/29 00:01:42;;;;;;;;;46.25;37.00;;;;;24.62;53.29;101214.97;5035435;28;45445;-63
2023/06/29 00:04:08;;;;;;;;;49.50;41.00;;;;;24.42;53.10;101185.63;5039232;28;45401;-64
2023/06/29 00:06:36;;;;;;;;;48.25;39.50;;;;;24.54;52.52;101205.56;5039414;28;45430;-64
2023/06/29 00:09:01;;;;;;;;;48.00;40.00;;;;;24.60;52.86;101223.28;5037160;28;45775;-64
2023/06/29 00:11:27;;;;;;;;;46.00;38.50;;;;;24.55;52.98;101206.44;5026907;28;48384;-64
2023/06/29 00:13:53;;;;;;;;;50.00;41.00;;;;;24.48;53.25;101208.78;5039878;28;45570;-64
2023/06/29 00:16:18;;;;;;;;;49.25;40.75;;;;;24.57;53.31;101220.81;5040963;28;45389;-64
2023/06/29 00:18:44;;;;;;;;;36.75;32.50;;;;;24.57;53.05;101218.97;5043166;28;45485;-63
2023/06/29 00:21:10;;;;;;;;;50.00;40.25;;;;;24.59;53.23;101221.56;5021858;28;47040;-64
2023/06/29 00:23:35;;;;;;;;;55.00;43.50;;;;;24.53;53.06;101211.13;5031216;28;45331;-64
2023/06/29 00:26:02;;;;;;;;;50.25;41.75;;;;;24.57;53.10;101198.97;5040630;28;45336;-64
2023/06/29 00:28:28;;;;;;;;;50.25;39.50;;;;;24.66;52.78;101206.41;5033301;28;45272;-64
2023/06/29 00:30:53;;;;;;;;;55.50;45.00;;;;;24.59;52.96;101199.72;5041033;28;47115;-63
2023/06/29 00:33:18;;;;;;;;;49.25;42.50;;;;;24.50;52.71;101182.22;5039355;28;45464;-63
2023/06/29 00:35:44;;;;;;;;;50.25;42.00;;;;;24.48;52.68;101177.91;5040360;28;45348;-64
2023/06/29 00:38:09;;;;;;;;;54.00;43.50;;;;;24.54;53.12;101194.63;5040148;28;45394;-64
2023/06/29 00:40:34;;;;;;;;;51.25;42.25;;;;;24.37;52.63;101156.97;5027642;28;45471;-64
2023/06/29 00:43:00;;;;;;;;;56.00;45.75;;;;;24.63;53.27;101192.16;5042297;28;45327;-64
2023/06/29 00:45:26;;;;;;;;;55.00;44.50;;;;;24.61;52.92;101192.28;5027865;28;45777;-64
2023/06/29 00:55:53;;;;;;;;;52.75;44.00;;;;;24.50;52.82;101182.22;5040139;28;45634;-63
2023/06/29 00:58:18;;;;;;;;;50.00;40.75;;;;;24.48;52.57;101173.31;5038283;28;45287;-64
2023/06/29 01:00:44;;;;;;;;;58.00;46.75;;;;;24.48;53.19;101177.91;5030912;28;47967;-64
2023/06/29 01:03:11;;;;;;;;;57.50;47.00;;;;;24.39;53.16;101161.31;5029305;28;45597;-64
2023/06/29 01:05:36;;;;;;;;;64.25;51.50;;;;;24.38;53.55;101159.56;5030886;28;45658;-63
2023/06/29 01:08:11;;;;;;;;;49.00;37.50;;;;;24.35;53.42;101154.38;5043846;28;45692;-64
2023/06/29 01:10:37;;;;;;;;;67.00;53.00;;;;;24.42;53.56;101157.44;5038565;28;46326;-63
2023/06/29 01:13:05;;;;;;;;;66.50;50.75;;;;;24.38;53.39;101154.13;5028200;28;46246;-64
2023/06/29 01:15:31;;;;;;;;;58.50;49.00;;;;;24.43;53.37;101161.94;5039022;28;45822;-64
2023/06/29 01:17:59;;;;;;;;;62.00;49.25;;;;;24.36;53.50;101145.22;5042834;28;45452;-64
2023/06/29 01:20:27;;;;;;;;;43.75;35.50;;;;;24.40;53.41;101152.13;5039140;28;45262;-64
2023/06/29 01:22:58;;;;;;;;;61.25;49.25;;;;;24.42;53.51;101152.00;5030501;28;45362;-64
2023/06/29 01:25:25;;;;;;;;;56.25;45.00;;;;;24.45;53.37;101164.53;5039076;28;46026;-64
2023/06/29 01:27:50;;;;;;;;;54.25;44.50;;;;;24.34;53.63;101143.59;5040214;28;45420;-64
2023/06/29 01:30:16;;;;;;;;;31.50;25.50;;;;;24.34;53.88;101149.94;5038365;28;45605;-64
2023/06/29 01:32:42;;;;;;;;;56.00;44.75;;;;;24.30;53.72;101143.00;5034433;28;45501;-63
2023/06/29 01:35:08;;;;;;;;;53.25;42.25;;;;;24.32;53.32;101151.91;5027760;28;45307;-64
2023/06/29 01:37:44;;;;;;;;;50.25;41.25;;;;;24.25;54.04;101128.00;5038102;28;45427;-64
2023/06/29 01:40:13;;;;;;;;;51.75;42.00;;;;;24.37;53.86;101154.25;5043211;28;45509;-64
2023/06/29 01:42:40;;;;;;;;;50.50;41.25;;;;;24.35;53.96;101148.91;5040895;28;48524;-64
2023/06/29 01:45:07;;;;;;;;;51.25;41.00;;;;;24.35;54.04;101148.91;5041051;28;45383;-64
2023/06/29 01:47:34;;;;;;;;;46.50;37.50;;;;;24.36;53.63;101145.22;5040536;28;45774;-64
2023/06/29 01:50:01;;;;;;;;;44.25;38.00;;;;;24.37;54.36;101154.25;5030540;28;45568;-64
2023/06/29 01:52:27;;;;;;;;;46.50;38.25;;;;;24.32;53.81;101149.16;5026155;28;45583;-64
2023/06/29 01:54:52;;;;;;;;;41.00;35.50;;;;;24.31;54.34;101152.06;5032218;28;45319;-64
2023/06/29 01:57:18;;;;;;;;;42.25;35.25;;;;;24.11;54.13;101124.59;5038673;28;45454;-64
2023/06/29 01:59:45;;;;;;;;;43.25;35.50;;;;;24.26;53.92;101146.09;5035899;28;45544;-63
2023/06/29 02:02:10;;;;;;;;;41.00;35.25;;;;;24.23;54.10;101139.06;5026527;28;45509;-64
2023/06/29 02:04:36;;;;;;;;;46.50;36.25;;;;;24.23;54.51;101144.50;5035079;28;45438;-64
2023/06/29 02:07:01;;;;;;;;;41.75;35.75;;;;;24.09;54.41;101112.94;5038880;28;45916;-64
2023/06/29 02:09:27;;;;;;;;;44.25;36.75;;;;;24.03;54.64;101097.09;5037681;28;45444;-64
2023/06/29 02:11:52;;;;;;;;;40.00;34.50;;;;;24.20;54.69;101126.53;5035822;28;47496;-64
2023/06/29 02:14:17;;;;;;;;;44.50;37.00;;;;;24.23;54.09;101129.00;5034600;28;45466;-64
2023/06/29 02:16:44;;;;;;;;;46.00;39.25;;;;;24.26;54.56;101122.44;5037493;28;46512;-64
2023/06/29 02:19:09;;;;;;;;;43.25;36.25;;;;;24.26;54.57;101130.63;5037527;28;45623;-64
2023/06/29 02:21:35;;;;;;;;;44.25;38.00;;;;;24.16;54.63;101107.84;5028442;28;46344;-64
2023/06/29 02:24:00;;;;;;;;;47.25;37.75;;;;;24.30;54.36;101131.22;5030588;28;45436;-63
2023/06/29 02:26:27;;;;;;;;;44.25;35.50;;;;;24.32;54.19;101134.69;5027510;28;45394;-64
2023/06/29 02:28:52;;;;;;;;;41.25;35.50;;;;;24.29;54.09;101124.91;5032002;28;45616;-64
2023/06/29 02:31:18;;;;;;;;;39.75;33.75;;;;;24.33;54.39;101120.06;5027999;28;45535;-64
2023/06/29 02:33:45;;;;;;;;;34.75;32.75;;;;;24.35;54.12;101121.63;5029091;28;45389;-64
2023/06/29 02:36:10;;;;;;;;;48.75;39.75;;;;;24.35;54.22;101115.31;5019092;28;45308;-64
2023/06/29 02:38:36;;;;;;;;;48.75;36.25;;;;;24.28;54.04;101106.78;5018580;28;45637;-64
2023/06/29 02:41:01;;;;;;;;;35.50;31.75;;;;;24.30;53.79;101102.06;5021234;28;46737;-64
2023/06/29 02:43:27;;;;;;;;;40.25;34.25;;;;;24.35;54.29;101107.16;5024973;28;45493;-63
2023/06/29 02:45:52;;;;;;;;;38.25;33.25;;;;;24.31;54.21;101109.28;5023801;28;45345;-64
2023/06/29 02:48:18;;;;;;;;;41.00;34.50;;;;;24.32;54.65;101101.94;5018614;28;45304;-64
2023/06/29 02:50:43;;;;;;;;;43.25;36.00;;;;;24.34;54.41;101098.09;5018539;28;45741;-63
2023/06/29 02:53:11;;;;;;;;;44.25;35.50;;;;;24.18;54.16;101078.56;5021913;28;45375;-64
2023/06/29 02:55:36;;;;;;;;;44.50;35.50;;;;;24.17;53.88;101075.00;5038550;28;45515;-64
2023/06/29 02:58:01;;;;;;;;;42.25;35.25;;;;;24.34;53.84;101106.28;5020653;28;45412;-64
2023/06/29 03:00:27;;;;;;;;;43.50;35.25;;;;;24.24;54.34;101099.88;5018396;28;46095;-64
2023/06/29 03:02:52;;;;;;;;;38.75;33.00;;;;;24.22;54.29;101091.81;5031273;28;45520;-64
2023/06/29 03:05:18;;;;;;;;;42.50;36.50;;;;;24.19;53.58;101091.19;5036753;28;45429;-64
2023/06/29 03:07:43;;;;;;;;;41.50;34.50;;;;;24.26;53.90;101108.78;5024752;28;45547;-64
2023/06/29 03:10:09;;;;;;;;;42.00;35.75;;;;;24.16;53.77;101096.94;5021964;28;46063;-64
2023/06/29 03:12:34;;;;;;;;;40.25;35.50;;;;;24.05;53.71;101078.72;5024222;28;45296;-64
2023/06/29 03:14:59;;;;;;;;;39.75;33.25;;;;;23.99;54.03;101081.97;5025601;28;45304;-63
2023/06/29 03:17:27;;;;;;;;;44.00;35.25;;;;;24.13;54.52;101105.38;5037185;28;45661;-64
2023/06/29 03:19:52;;;;;;;;;40.25;35.25;;;;;24.03;54.66;101087.03;5020535;28;47199;-64
2023/06/29 03:22:17;;;;;;;;;44.50;36.25;;;;;24.19;54.21;101102.09;5021100;28;45386;-64
2023/06/29 03:24:43;;;;;;;;;41.75;35.25;;;;;23.95;54.60;101073.19;5035273;28;45310;-63
2023/06/29 03:27:08;;;;;;;;;47.00;38.00;;;;;24.19;54.58;101108.44;5025064;28;45331;-64
2023/06/29 03:29:33;;;;;;;;;44.75;36.25;;;;;24.09;54.27;101082.94;5040480;28;45443;-64
2023/06/29 03:31:59;;;;;;;;;44.50;37.00;;;;;24.05;54.59;101084.19;5029940;28;45545;-63
2023/06/29 03:34:26;;;;;;;;;51.00;40.50;;;;;24.03;54.07;101087.03;5032089;28;45425;-63
2023/06/29 03:36:51;;;;;;;;;45.50;37.75;;;;;24.06;54.72;101091.38;5039708;28;46271;-64
2023/06/29 03:39:17;;;;;;;;;42.25;35.00;;;;;24.14;54.32;101104.34;5031061;28;45486;-63
2023/06/29 03:41:42;;;;;;;;;49.50;38.25;;;;;24.15;54.47;101103.38;5044571;28;45517;-64
2023/06/29 03:44:07;;;;;;;;;45.50;37.00;;;;;24.16;54.61;101097.78;5039422;28;45453;-64
2023/06/29 03:46:33;;;;;;;;;43.75;37.75;;;;;24.16;54.80;101103.25;5044871;28;45585;-64
2023/06/29 03:48:58;;;;;;;;;44.50;36.25;;;;;23.97;54.36;101064.88;5051061;28;46191;-64
2023/06/29 03:51:23;;;;;;;;;39.75;34.25;;;;;24.01;54.12;101083.59;5023576;28;45397;-64
2023/06/29 03:53:49;;;;;;;;;47.25;37.00;;;;;24.21;54.46;101100.13;5025843;28;45294;-63
2023/06/29 03:56:14;;;;;;;;;45.50;36.25;;;;;23.99;54.87;101066.50;5021157;28;45403;-64
2023/06/29 03:58:39;;;;;;;;;42.00;36.00;;;;;24.02;54.73;101070.81;5021209;28;45367;-63
2023/06/29 04:01:05;;;;;;;;;47.50;38.50;;;;;24.19;54.24;101113.00;5020633;28;47115;-64
2023/06/29 04:03:30;;;;;;;;;45.50;35.50;;;;;24.12;54.36;101095.44;5023863;28;45345;-64
2023/06/29 04:05:55;;;;;;;;;48.75;38.00;;;;;24.17;54.91;101099.53;5037429;28;45719;-64
2023/06/29 04:08:21;;;;;;;;;29.25;26.25;;;;;24.14;55.02;101086.16;5036271;28;46898;-64
2023/06/29 04:10:46;;;;;;;;;48.50;39.00;;;;;24.20;54.95;101091.06;5019642;28;45958;-64
2023/06/29 04:13:11;;;;;;;;;40.00;35.25;;;;;23.97;55.18;101057.59;5020591;28;45677;-64
2023/06/29 04:15:37;;;;;;;;;41.25;36.25;;;;;24.14;54.73;101083.44;5020777;28;45496;-64
2023/06/29 04:18:02;;;;;;;;;45.75;36.75;;;;;24.16;54.99;101083.31;5035655;28;47394;-64
2023/06/29 04:20:28;;;;;;;;;51.00;40.75;;;;;24.17;54.61;101079.56;5020604;28;45312;-64
2023/06/29 04:22:54;;;;;;;;;49.50;40.00;;;;;24.17;54.96;101080.44;5027817;28;45442;-64
2023/06/29 04:25:20;;;;;;;;;48.75;40.75;;;;;23.91;54.58;101033.56;5036506;28;45644;-64
2023/06/29 04:27:45;;;;;;;;;48.25;36.75;;;;;24.15;54.97;101073.38;5024693;28;45476;-64
2023/06/29 04:30:11;;;;;;;;;52.00;42.25;;;;;24.11;55.00;101074.66;5037147;28;45406;-64
2023/06/29 04:32:37;;;;;;;;;55.75;45.00;;;;;24.08;54.72;101069.44;5034871;28;45460;-63
2023/06/29 04:35:02;;;;;;;;;59.50;46.25;;;;;24.04;55.53;101066.13;5037008;28;45525;-63
2023/06/29 04:37:36;;;;;;;;;60.50;46.75;;;;;24.14;55.33;101077.09;5033124;28;45450;-66
2023/06/29 04:40:04;;;;;;;;;63.00;49.00;;;;;24.11;55.54;101074.66;5038020;28;45844;-66
2023/06/29 04:42:30;;;;;;;;;63.50;49.50;;;;;24.13;55.89;101075.38;5029505;28;45386;-66
2023/06/29 04:44:55;;;;;;;;;59.75;47.75;;;;;24.04;56.06;101064.25;5024139;28;45249;-66
2023/06/29 04:47:21;;;;;;;;;62.50;48.50;;;;;24.09;56.19;101071.16;5020411;28;45920;-66
2023/06/29 04:49:46;;;;;;;;;55.00;46.25;;;;;24.11;56.01;101075.50;5037187;28;45314;-66
2023/06/29 04:52:12;;;;;;;;;60.50;48.00;;;;;24.13;56.32;101072.66;5020020;28;45709;-66
2023/06/29 04:54:37;;;;;;;;;61.00;48.25;;;;;24.09;56.17;101076.59;5033588;28;45546;-66
2023/06/29 04:57:03;;;;;;;;;50.50;39.00;;;;;24.12;56.69;101082.66;5020202;28;45450;-66
2023/06/29 04:59:28;;;;;;;;;60.00;47.75;;;;;23.94;55.87;101054.22;5037105;28;45277;-66
2023/06/29 05:01:54;;;;;;;;;54.75;46.25;;;;;24.10;56.19;101083.81;5021569;28;45642;-66
2023/06/29 05:04:19;;;;;;;;;61.75;48.00;;;;;23.97;56.41;101078.50;5043602;28;45420;-66
2023/06/29 05:06:44;;;;;;;;;54.25;45.50;;;;;24.00;56.54;101086.44;5032329;28;45373;-66
2023/06/29 05:09:10;;;;;;;;;57.00;46.00;;;;;24.04;56.61;101094.25;5031646;28;45387;-66
2023/06/29 05:11:35;;;;;;;;;58.00;47.25;;;;;24.07;56.58;101094.97;5023040;28;45447;-66
2023/06/29 05:14:01;;;;;;;;;66.50;52.50;;;;;24.03;56.69;101087.03;5039083;28;45696;-66
2023/06/29 05:16:26;;;;;;;;;63.00;50.25;;;;;24.01;57.11;101086.31;5052483;28;45397;-66
2023/06/29 05:18:52;;;;;;;;;69.25;55.50;;;;;24.00;56.91;101086.44;5042354;28;45358;-66
2023/06/29 05:21:17;;;;;;;;;62.50;50.25;;;;;23.95;57.60;101080.50;5032261;28;45723;-66
2023/06/29 05:23:43;;;;;;;;;69.00;52.50;;;;;23.97;57.10;101095.75;5026201;28;45422;-66
2023/06/29 05:26:08;;;;;;;;;63.00;48.75;;;;;23.99;57.22;101095.59;5034555;28;47388;-66
2023/06/29 05:28:33;;;;;;;;;64.75;49.75;;;;;23.86;56.96;101076.69;5032852;28;45358;-66
2023/06/29 05:30:59;;;;;;;;;60.25;48.50;;;;;24.02;57.67;101089.91;5031114;28;45274;-66
2023/06/29 05:33:24;;;;;;;;;58.75;48.00;;;;;24.03;57.04;101088.91;5028917;28;45405;-66
2023/06/29 05:35:50;;;;;;;;;63.50;49.75;;;;;24.05;57.68;101087.78;5031982;28;45300;-66
2023/06/29 05:38:15;;;;;;;;;57.75;48.50;;;;;24.03;57.88;101088.91;5023946;28;45460;-66
2023/06/29 05:40:41;;;;;;;;;62.00;48.25;;;;;23.94;57.53;101065.13;5030835;28;45339;-66
2023/06/29 05:43:06;;;;;;;;;62.25;47.50;;;;;23.91;57.48;101063.53;5019114;28;45393;-66
2023/06/29 05:45:32;;;;;;;;;57.50;46.25;;;;;24.05;58.10;101089.63;5020036;28;45479;-66
2023/06/29 05:47:57;;;;;;;;;62.50;49.25;;;;;23.89;58.08;101068.28;5022465;28;46170;-66
2023/06/29 05:50:23;;;;;;;;;62.50;49.25;;;;;23.87;57.81;101062.06;5022413;28;45334;-66
2023/06/29 05:52:48;;;;;;;;;56.25;45.75;;;;;23.89;57.24;101065.53;5019215;28;45675;-66
2023/06/29 05:55:13;;;;;;;;;59.25;47.00;;;;;23.88;57.92;101062.94;5018551;28;45464;-66
2023/06/29 05:57:39;;;;;;;;;53.75;39.00;;;;;23.95;57.37;101070.47;5032030;28;45602;-66
2023/06/29 06:00:11;;;;;;;;;57.50;45.25;;;;;23.84;57.48;101059.59;5019445;28;45697;-66
2023/06/29 06:02:37;;;;;;;;;48.25;38.75;;;;;24.02;57.50;101092.63;5025536;28;45395;-66
2023/06/29 06:05:03;;;;;;;;;53.75;42.25;;;;;23.99;57.60;101087.41;5025939;28;47130;-65
2023/06/29 06:07:29;;;;;;;;;53.50;45.25;;;;;24.07;57.86;101082.19;5023675;28;45266;-65
2023/06/29 06:09:55;;;;;;;;;48.50;41.25;;;;;24.03;57.88;101087.03;5031053;28;45431;-66
2023/06/29 06:12:22;;;;;;;;;46.00;36.50;;;;;24.04;57.97;101090.66;5017692;28;46079;-66
2023/06/29 06:14:47;;;;;;;;;49.75;39.25;;;;;23.81;58.05;101059.81;5018511;28;46256;-66
2023/06/29 06:17:12;;;;;;;;;48.50;40.75;;;;;24.00;57.72;101078.25;5028062;28;46388;-66
2023/06/29 06:19:38;;;;;;;;;49.50;41.25;;;;;23.96;57.81;101076.78;5031154;28;45483;-66
2023/06/29 06:22:03;;;;;;;;;46.50;38.75;;;;;23.92;58.13;101081.63;5020253;28;45652;-66
2023/06/29 06:24:28;;;;;;;;;46.25;38.50;;;;;23.93;58.47;101077.91;5023070;28;48197;-66
2023/06/29 06:26:54;;;;;;;;;42.75;37.00;;;;;23.90;58.33;101069.13;5018725;28;45254;-66
2023/06/29 06:29:19;;;;;;;;;39.75;33.75;;;;;23.92;58.18;101069.84;5024116;28;45313;-66
2023/06/29 06:31:45;;;;;;;;;46.50;38.50;;;;;23.97;58.40;101079.41;5029833;28;45477;-66
2023/06/29 06:34:10;;;;;;;;;43.75;35.75;;;;;23.90;58.42;101067.25;5034955;28;47955;-66
2023/06/29 06:36:36;;;;;;;;;46.50;36.75;;;;;24.03;58.60;101083.47;5036821;28;45624;-66
2023/06/29 06:39:01;;;;;;;;;46.25;36.25;;;;;24.03;58.49;101087.03;5033135;28;45593;-66
2023/06/29 06:41:27;;;;;;;;;44.75;38.00;;;;;24.01;58.96;101080.84;5024361;28;47074;-66
2023/06/29 06:43:54;;;;;;;;;43.50;33.50;;;;;23.96;59.04;101064.03;5023459;28;45336;-66
2023/06/29 06:46:20;;;;;;;;;34.00;30.50;;;;;23.84;58.82;101054.16;5025050;28;45375;-65
2023/06/29 06:48:46;;;;;;;;;41.75;32.75;;;;;23.96;58.47;101077.66;5024788;28;45419;-65
2023/06/29 06:51:11;;;;;;;;;41.25;33.75;;;;;24.04;58.53;101090.66;5022639;28;45568;-65
2023/06/29 06:53:37;;;;;;;;;45.50;36.50;;;;;24.00;58.63;101090.03;5035238;28;46174;-66
2023/06/29 06:56:02;;;;;;;;;32.50;29.75;;;;;23.84;59.26;101056.88;5021877;28;45442;-66
2023/06/29 06:58:30;;;;;;;;;43.00;33.25;;;;;23.98;59.29;101085.72;5019914;28;45391;-66
2023/06/29 07:00:56;;;;;;;;;45.25;34.25;;;;;23.88;59.32;101069.25;5031684;28;45338;-66
2023/06/29 07:03:21;;;;;;;;;38.00;33.75;;;;;23.98;59.02;101081.09;5030671;28;47286;-66
2023/06/29 07:05:46;;;;;;;;;39.50;33.25;;;;;23.99;59.30;101088.31;5033916;28;45402;-66
2023/06/29 07:08:12;;;;;;;;;37.75;33.50;;;;;23.85;58.86;101062.19;5019764;28;45382;-68
2023/06/29 07:10:37;;;;;;;;;40.75;33.75;;;;;23.98;59.21;101078.38;5026186;28;45523;-66
2023/06/29 07:13:03;;;;;;;;;41.00;34.50;;;;;23.94;59.10;101082.38;5037001;28;46145;-66
2023/06/29 07:15:28;;;;;;;;;35.75;31.50;;;;;23.81;59.40;101063.41;5035272;28;45488;-66
2023/06/29 07:17:53;;;;;;;;;45.00;37.00;;;;;24.00;59.47;101081.84;5036461;28;45429;-66
2023/06/29 07:20:19;;;;;;;;;39.00;33.75;;;;;23.94;59.13;101060.56;5027651;28;45468;-66
2023/06/29 07:22:44;;;;;;;;;42.50;32.50;;;;;23.97;59.48;101070.31;5022168;28;45706;-66
2023/06/29 07:25:11;;;;;;;;;36.50;33.00;;;;;24.05;59.17;101070.56;5020123;28;45386;-65
2023/06/29 07:27:37;;;;;;;;;44.75;37.50;;;;;24.00;59.49;101067.34;5028138;28;46370;-65
2023/06/29 07:30:03;;;;;;;;;40.00;34.75;;;;;23.97;59.62;101065.75;5032170;28;45506;-65
2023/06/29 07:32:28;;;;;;;;;33.00;29.50;;;;;24.09;59.10;101076.59;5031171;28;47501;-65
2023/06/29 07:34:54;;;;;;;;;39.50;32.75;;;;;24.08;59.94;101074.91;5038396;28;45379;-65
2023/06/29 07:37:21;;;;;;;;;40.00;32.75;;;;;24.15;59.34;101078.81;5036702;28;45328;-65
2023/06/29 07:39:47;;;;;;;;;37.75;32.25;;;;;24.11;59.19;101058.28;5028901;28;45451;-66
2023/06/29 07:42:12;;;;;;;;;39.25;34.00;;;;;24.17;59.28;101071.38;5021403;28;46031;-65
2023/06/29 07:44:37;;;;;;;;;31.50;27.00;;;;;24.17;59.09;101055.00;5023190;28;45399;-65
2023/06/29 07:47:03;;;;;;;;;46.00;36.50;;;;;24.18;59.53;101064.94;5027771;28;45304;-65
2023/06/29 07:49:28;;;;;;;;;31.25;28.75;;;;;24.19;58.79;101061.19;5020240;28;45785;-65
2023/06/29 07:51:54;;;;;;;;;38.00;32.75;;;;;24.16;59.14;101054.16;5036089;28;46008;-65
2023/06/29 07:54:19;;;;;;;;;37.75;32.00;;;;;24.23;59.10;101057.22;5018993;28;45457;-63
2023/06/29 07:56:44;;;;;;;;;38.75;33.00;;;;;24.23;59.09;101066.25;5032514;28;45663;-63
2023/06/29 07:59:10;;;;;;;;;34.00;28.25;;;;;24.24;59.31;101056.25;5029186;28;45635;-63
2023/06/29 08:01:38;;;;;;;;;34.25;31.50;;;;;24.20;58.88;101052.88;5027324;28;57016;-62
2023/06/29 08:04:03;;;;;;;;;33.50;28.25;;;;;24.26;59.59;101056.97;5035101;28;46332;-63
2023/06/29 08:06:28;;;;;;;;;42.75;36.50;;;;;24.23;58.77;101049.91;5038047;28;45405;-63
2023/06/29 08:08:54;;;;;;;;;39.75;34.75;;;;;24.26;59.47;101053.34;5024048;28;45482;-63
2023/06/29 08:11:20;;;;;;;;;42.75;33.25;;;;;24.29;59.08;101055.81;5020541;28;45257;-63
2023/06/29 08:13:46;;;;;;;;;35.50;31.25;;;;;24.27;59.45;101045.03;5022163;28;45316;-62
2023/06/29 08:16:11;;;;;;;;;32.00;28.50;;;;;24.26;59.83;101035.16;5040160;28;45497;-63
2023/06/29 08:18:37;;;;;;;;;41.75;35.50;;;;;24.33;60.58;101043.66;5029395;28;45594;-63
2023/06/29 08:21:02;;;;;;;;;41.25;32.50;;;;;24.38;60.29;101045.00;5037685;28;45466;-63
2023/06/29 08:23:31;;;;;;;;;36.50;31.50;;;;;24.41;60.39;101046.59;5027697;28;45577;-63
2023/06/29 08:25:56;;;;;;;;;31.75;29.50;;;;;24.39;60.86;101041.28;5038215;28;45429;-63
2023/06/29 08:28:21;;;;;;;;;34.75;29.25;;;;;24.41;60.61;101022.06;5030541;28;45433;-63
2023/06/29 08:30:47;;;;;;;;;39.75;32.75;;;;;24.50;61.29;101042.22;5038271;28;48299;-63
2023/06/29 08:33:12;;;;;;;;;36.00;32.00;;;;;24.46;60.09;101038.88;5033391;28;45324;-63
2023/06/29 08:35:37;;;;;;;;;35.50;31.25;;;;;24.50;61.35;101040.34;5024135;28;46492;-63
2023/06/29 08:38:03;;;;;;;;;33.50;31.50;;;;;24.55;60.40;101040.84;5038971;28;49717;-63
2023/06/29 08:40:33;;;;;;;;;38.50;33.75;;;;;24.61;61.04;101050.38;5032634;28;59890;-65
2023/06/29 08:42:58;;;;;;;;;39.50;33.50;;;;;24.68;60.11;101046.09;5026649;28;45409;-65
2023/06/29 08:45:23;;;;;;;;;38.00;32.00;;;;;24.71;59.89;101045.84;5025902;28;45244;-65
2023/06/29 08:47:51;;;;;;;;;34.75;29.75;;;;;24.74;60.75;101051.03;5025979;28;45546;-65
2023/06/29 08:50:20;;;;;;;;;38.75;32.25;;;;;24.77;60.02;101049.88;5022120;28;45447;-63
2023/06/29 08:52:46;;;;;;;;;37.00;32.75;;;;;24.78;59.87;101044.28;5023024;28;45328;-63
2023/06/29 08:55:11;;;;;;;;;42.75;35.75;;;;;24.84;60.10;101050.19;5019925;28;45379;-63
2023/06/29 08:57:38;;;;;;;;;38.25;32.75;;;;;24.83;60.05;101049.34;5033191;28;45230;-63
2023/06/29 09:00:05;;;;;;;;;36.50;32.25;;;;;24.86;59.60;101049.09;5019160;28;45670;-63
2023/06/29 09:02:32;;;;;;;;;36.00;31.25;;;;;24.83;59.97;101041.16;5030653;28;45488;-63
2023/06/29 09:04:58;;;;;;;;;36.25;31.00;;;;;24.88;59.24;101048.94;5031264;28;45388;-63
2023/06/29 09:07:24;;;;;;;;;38.00;31.25;;;;;24.87;59.72;101049.94;5038217;28;45383;-63
2023/06/29 09:09:49;;;;;;;;;38.25;32.25;;;;;24.79;59.58;101031.50;5031232;28;45305;-63
2023/06/29 09:12:15;;;;;;;;;41.75;33.50;;;;;24.84;60.42;101039.28;5033337;28;45256;-62
2023/06/29 09:14:44;;;;;;;;;43.75;35.75;;;;;24.83;60.05;101027.50;5031239;28;45278;-62
2023/06/29 09:17:14;;;;;;;;;39.75;33.50;;;;;24.84;60.23;101034.72;5031970;28;45406;-63
2023/06/29 09:19:42;;;;;;;;;43.50;35.00;;;;;24.81;60.20;101031.34;5027787;28;45450;-64
2023/06/29 09:22:07;;;;;;;;;39.50;33.00;;;;;24.89;59.41;101039.75;5032668;28;45343;-64
2023/06/29 09:24:34;;;;;;;;;42.75;36.25;;;;;24.92;59.74;101036.75;5031386;28;45336;-63
2023/06/29 09:26:59;;;;;;;;;44.00;36.00;;;;;24.94;59.86;101030.16;5025839;28;45511;-63
2023/06/29 09:29:25;;;;;;;;;33.50;30.25;;;;;24.97;60.10;101029.00;5035184;28;45494;-63
2023/06/29 09:31:55;;;;;;;;;39.50;33.75;;;;;25.01;59.36;101025.03;5032196;28;45552;-63
2023/06/29 09:34:21;;;;;;;;;31.25;30.25;;;;;25.07;59.91;101038.09;5025226;28;45488;-64
2023/06/29 09:36:48;;;;;;;;;39.50;33.25;;;;;25.06;59.18;101035.50;5034816;28;45346;-63
2023/06/29 09:39:14;;;;;;;;;40.75;34.00;;;;;25.11;59.26;101036.84;5039054;28;46399;-63
2023/06/29 09:41:49;;;;;;;;;30.25;28.00;;;;;25.15;60.30;101037.44;5038854;28;45535;-64
2023/06/29 09:44:21;;;;;;;;;36.75;33.25;;;;;25.12;59.86;101035.81;5029701;28;45577;-64
2023/06/29 09:46:48;;;;;;;;;40.25;33.00;;;;;25.17;59.22;101042.75;5023418;28;45538;-63
2023/06/29 09:49:14;;;;;;;;;42.75;32.75;;;;;25.23;59.80;101044.94;5032909;28;45462;-63
2023/06/29 09:51:40;;;;;;;;;32.75;29.75;;;;;25.25;59.21;101048.41;5028738;28;45409;-63
2023/06/29 09:54:10;;;;;;;;;41.00;33.00;;;;;25.25;58.65;101042.94;5019522;28;45455;-63
2023/06/29 09:56:37;;;;;;;;;41.25;34.00;;;;;25.29;58.97;101047.13;5025806;28;45504;-63
2023/06/29 09:59:02;;;;;;;;;39.00;33.25;;;;;25.28;59.62;101045.44;5031415;28;47026;-63
2023/06/29 10:01:31;;;;;;;;;42.25;35.25;;;;;25.30;59.13;101048.88;5024665;28;45453;-63
2023/06/29 10:03:57;;;;;;;;;37.50;31.50;;;;;25.25;58.73;101042.94;5030139;28;45452;-63
2023/06/29 10:06:42;;;;;;;;;32.75;30.25;;;;;25.28;58.88;101050.91;5029070;28;45429;-64
2023/06/29 10:09:08;;;;;;;;;39.25;32.75;;;;;25.24;59.07;101038.47;5018981;28;46184;-65
2023/06/29 10:11:35;;;;;;;;;32.50;30.50;;;;;25.35;59.10;101051.22;5034007;28;45623;-68
2023/06/29 10:14:04;;;;;;;;;33.75;30.25;;;;;25.35;58.87;101049.31;5037156;28;45375;-69
2023/06/29 10:16:33;;;;;;;;;37.00;31.75;;;;;25.39;58.28;101055.38;5030672;28;45926;-67
2023/06/29 10:19:09;;;;;;;;;35.50;30.50;;;;;25.40;57.51;101054.38;5029147;28;46130;-69
2023/06/29 10:21:37;;;;;;;;;37.75;31.00;;;;;25.22;58.12;101027.66;5026835;28;45836;-66
2023/06/29 10:24:04;;;;;;;;;38.75;33.00;;;;;25.41;57.58;101054.25;5024207;28;45269;-66
2023/06/29 10:26:30;;;;;;;;;36.75;32.00;;;;;25.45;57.49;101052.94;5025126;28;45690;-68
2023/06/29 10:28:55;;;;;;;;;30.00;28.00;;;;;25.47;57.35;101047.34;5028319;28;46713;-67
2023/06/29 10:31:31;;;;;;;;;29.25;27.25;;;;;25.48;57.21;101049.09;5016209;28;45483;-66
2023/06/29 10:33:57;;;;;;;;;32.25;30.25;;;;;25.54;57.56;101058.59;5024232;28;45399;-66
2023/06/29 10:36:23;;;;;;;;;33.00;29.75;;;;;25.55;56.92;101057.59;5022866;28;45551;-64
2023/06/29 10:38:49;;;;;;;;;27.50;25.00;;;;;25.47;57.43;101033.69;5034451;28;45903;-64
2023/06/29 10:41:26;;;;;;;;;31.25;29.25;;;;;25.40;57.47;101019.72;5018458;28;45299;-64
2023/06/29 10:43:56;;;;;;;;;33.25;31.25;;;;;25.52;57.23;101034.97;5027147;28;45431;-64
2023/06/29 10:46:48;;;;;;;;;37.25;32.75;;;;;25.59;57.54;101038.03;5030233;28;45407;-65
2023/06/29 10:49:24;;;;;;;;;32.25;29.50;;;;;25.63;57.34;101050.41;5012965;28;46535;-64
2023/06/29 10:51:54;;;;;;;;;33.50;30.50;;;;;25.61;57.39;101036.03;5026934;28;45363;-64
2023/06/29 10:54:26;;;;;;;;;39.50;34.00;;;;;25.65;57.70;101040.19;5021287;28;45587;-64
2023/06/29 10:57:02;;;;;;;;;36.50;31.50;;;;;25.70;57.94;101037.06;5021878;28;45543;-64
2023/06/29 10:59:29;;;;;;;;;35.75;32.25;;;;;25.66;56.49;101033.75;5024977;28;45578;-64
2023/06/29 11:01:55;;;;;;;;;35.00;32.50;;;;;25.69;57.59;101025.25;5021409;28;46168;-64
2023/06/29 11:04:24;;;;;;;;;31.75;30.25;;;;;25.78;56.42;101029.00;5036549;28;45313;-64
2023/06/29 11:06:49;;;;;;;;;39.25;32.00;;;;;25.77;56.33;101024.53;5052943;28;45514;-64
2023/06/29 11:09:16;;;;;;;;;37.25;32.75;;;;;25.85;55.57;101026.56;5017249;28;46075;-64
2023/06/29 11:11:45;;;;;;;;;43.00;35.50;;;;;25.83;55.57;101015.78;5020647;28;45569;-65
2023/06/29 11:14:14;;;;;;;;;35.75;32.00;;;;;25.92;55.69;101018.66;5021452;28;45956;-64